Time;durP1;ratioP1;P1;durP2;ratioP2;P2;SDS_P1;SDS_P2;PMS_P1;PMS_P2;Temp;Humidity;BMP_temperature;BMP_pressure;BME280_temperature;BME280_humidity;BME280_pressure;Samples;Min_cycle;Max_cycle;Signal;HPM_P1;HPM_P2
2023/11/02 06:02:15;;;;;;;;;;;;;;;;;;5209199;23;19926;-45
2023/11/02 06:04:40;;;;;;;;;;;;;;;;;;5011291;28;20463;-45
2023/11/02 06:07:06;;;;;;;;;;;;;;;;;;5011207;28;19960;-45
2023/11/02 06:09:32;;;;;;;;;;;;;;;;;;5010836;28;19916;-45
2023/11/02 06:11:58;;;;;;;;;;;;;;;;;;5011589;28;19963;-44
2023/11/02 06:14:24;;;;;;;;;;;;;;;;;;5011164;28;19910;-47
2023/11/02 06:16:50;;;;;;;;;;;;;;;;;;5010862;28;19909;-44
2023/11/02 06:19:16;;;;;;;;;;;;;;;;;;5011016;28;20301;-46
2023/11/02 06:21:42;;;;;;;;;;;;;;;;;;5011171;28;20280;-48
2023/11/02 06:24:08;;;;;;;;;;;;;;;;;;4993570;28;19924;-47
2023/11/02 06:26:33;;;;;;;;;;;;;;;;;;5010662;28;19916;-44
2023/11/02 06:28:59;;;;;;;;;;;;;;;;;;5010801;28;20000;-45
2023/11/02 06:31:25;;;;;;;;;;;;;;;;;;5010898;28;19932;-45
2023/11/02 06:33:51;;;;;;;;;;;;;;;;;;5010499;28;20300;-44
2023/11/02 06:36:17;;;;;;;;;;;;;;;;;;5010376;28;19913;-46
2023/11/02 06:38:43;;;;;;;;;;;;;;;;;;5009921;28;20385;-43
2023/11/02 06:41:09;;;;;;;;;;;;;;;;;;5010450;28;19949;-47
2023/11/02 06:43:35;;;;;;;;;;;;;;;;;;5010499;28;19909;-44
2023/11/02 06:46:02;;;;;;;;;;;;;;;;;;4993109;28;19972;-45
2023/11/02 06:48:28;;;;;;;;;;;;;;;;;;5010494;28;19916;-45
2023/11/02 06:50:54;;;;;;;;;;;;;;;;;;5010448;28;19917;-44
2023/11/02 06:53:20;;;;;;;;;;;;;;;;;;5010370;28;20377;-47
2023/11/02 06:55:46;;;;;;;;;;;;;;;;;;5010349;28;19913;-45
2023/11/02 06:58:11;;;;;;;;;;;;;;;;;;5010112;28;19909;-45
2023/11/02 07:00:37;;;;;;;;;;;;;;;;;;5010028;28;20004;-47
2023/11/02 07:03:03;;;;;;;;;;;;;;;;;;5010202;28;19909;-46
2023/11/02 07:05:29;;;;;;;;;;;;;;;;;;5010597;28;19910;-43
2023/11/02 07:07:55;;;;;;;;;;;;;;;;;;5009805;28;20385;-44
2023/11/02 07:10:21;;;;;;;;;;;;;;;;;;5010204;28;19909;-42
2023/11/02 07:12:47;;;;;;;;;;;;;;;;;;5009887;28;19913;-43
2023/11/02 07:15:13;;;;;;;;;;;;;;;;;;5010099;28;20388;-42
2023/11/02 07:17:39;;;;;;;;;;;;;;;;;;5009826;28;20254;-41
2023/11/02 07:20:05;;;;;;;;;;;;;;;;;;5009918;28;20282;-41
2023/11/02 07:22:31;;;;;;;;;;;;;;;;;;5010064;28;19909;-42
2023/11/02 07:24:57;;;;;;;;;;;;;;;;;;5011756;28;20389;-42
2023/11/02 07:27:28;;;;;;;;;;;;;;;;;;5010491;28;20012;-43
2023/11/02 07:29:54;;;;;;;;;;;;;;;;;;5010844;28;19967;-43
2023/11/02 07:32:20;;;;;;;;;;;;;;;;;;5011055;28;19953;-42
2023/11/02 07:34:46;;;;;;;;;;;;;;;;;;5009588;28;19914;-42
2023/11/02 07:37:12;;;;;;;;;;;;;;;;;;5010887;28;19909;-42
2023/11/02 07:39:38;;;;;;;;;;;;;;;;;;5010187;28;20262;-42
2023/11/02 07:42:04;;;;;;;;;;;;;;;;;;5010308;28;19992;-42
2023/11/02 07:44:30;;;;;;;;;;;;;;;;;;5010394;28;19910;-42
2023/11/02 07:46:56;;;;;;;;;;;;;;;;;;5009886;28;20401;-43
2023/11/02 07:49:22;;;;;;;;;;;;;;;;;;5009874;28;19917;-43
2023/11/02 07:51:48;;;;;;;;;;;;;;;;;;5010288;28;19916;-43
2023/11/02 07:54:13;;;;;;;;;;;;;;;;;;5009875;28;19968;-44
2023/11/02 07:56:39;;;;;;;;;;;;;;;;;;5010011;28;20450;-42
2023/11/02 07:59:05;;;;;;;;;;;;;;;;;;5009656;28;20012;-44
2023/11/02 08:01:31;;;;;;;;;;;;;;;;;;5009732;28;19918;-44
2023/11/02 08:03:57;;;;;;;;;;;;;;;;;;5009307;28;20404;-48
2023/11/02 08:06:23;;;;;;;;;;;;;;;;;;5009533;28;19909;-48
2023/11/02 08:08:50;;;;;;;;;;;;;;;;;;5009271;28;19909;-46
2023/11/02 08:11:16;;;;;;;;;;;;;;;;;;5012524;28;20436;-47
2023/11/02 08:13:42;;;;;;;;;;;;;;;;;;5006480;28;19913;-43
2023/11/02 08:16:08;;;;;;;;;;;;;;;;;;5010580;28;20015;-44
2023/11/02 08:18:34;;;;;;;;;;;;;;;;;;5010897;28;20000;-45
2023/11/02 08:21:00;;;;;;;;;;;;;;;;;;5010832;28;20405;-47
2023/11/02 08:23:26;;;;;;;;;;;;;;;;;;5010650;28;19913;-47
2023/11/02 08:25:52;;;;;;;;;;;;;;;;;;5009353;28;19905;-45
2023/11/02 08:28:18;;;;;;;;;;;;;;;;;;5009097;28;20385;-44
2023/11/02 08:30:44;;;;;;;;;;;;;;;;;;5003034;28;20041;-44
2023/11/02 08:33:10;;;;;;;;;;;;;;;;;;5008830;28;19935;-46
2023/11/02 08:35:36;;;;;;;;;;;;;;;;;;5010489;28;19913;-44
2023/11/02 08:38:02;;;;;;;;;;;;;;;;;;5010709;28;20366;-44
2023/11/02 08:40:28;;;;;;;;;;;;;;;;;;5008420;28;19945;-47
2023/11/02 08:42:54;;;;;;;;;;;;;;;;;;5010498;28;20349;-44
2023/11/02 08:45:20;;;;;;;;;;;;;;;;;;5008685;28;19920;-44
2023/11/02 08:47:46;;;;;;;;;;;;;;;;;;5008826;28;19924;-45
2023/11/02 08:50:12;;;;;;;;;;;;;;;;;;5006352;28;19971;-43
2023/11/02 08:52:38;;;;;;;;;;;;;;;;;;5008423;28;19932;-44
2023/11/02 08:55:04;;;;;;;;;;;;;;;;;;4995566;28;19921;-45
2023/11/02 08:57:30;;;;;;;;;;;;;;;;;;4992333;28;20378;-44
2023/11/02 08:59:56;;;;;;;;;;;;;;;;;;5010335;28;19925;-45
2023/11/02 09:02:21;;;;;;;;;;;;;;;;;;5013495;28;19918;-44
2023/11/02 09:04:47;;;;;;;;;;;;;;;;;;5013604;28;19956;-45
2023/11/02 09:07:13;;;;;;;;;;;;;;;;;;5013509;28;19921;-44
2023/11/02 09:09:39;;;;;;;;;;;;;;;;;;5013361;28;19909;-47
2023/11/02 09:12:05;;;;;;;;;;;;;;;;;;5013340;28;19961;-44
2023/11/02 09:14:31;;;;;;;;;;;;;;;;;;5012133;28;20381;-44
2023/11/02 09:16:57;;;;;;;;;;;;;;;;;;5012489;28;19920;-45
2023/11/02 09:19:23;;;;;;;;;;;;;;;;;;5012398;28;19980;-44
2023/11/02 09:21:49;;;;;;;;;;;;;;;;;;5009814;28;19953;-46
2023/11/02 09:24:15;;;;;;;;;;;;;;;;;;5013012;28;19913;-44
2023/11/02 09:26:41;;;;;;;;;;;;;;;;;;5011303;28;19909;-45
2023/11/02 09:29:07;;;;;;;;;;;;;;;;;;5008725;28;20335;-44
2023/11/02 09:31:33;;;;;;;;;;;;;;;;;;4996871;28;19964;-45
2023/11/02 09:33:59;;;;;;;;;;;;;;;;;;5012966;28;20291;-45
2023/11/02 09:36:25;;;;;;;;;;;;;;;;;;5012907;28;20000;-45
2023/11/02 09:38:50;;;;;;;;;;;;;;;;;;5012781;28;19906;-45
2023/11/02 09:41:16;;;;;;;;;;;;;;;;;;5013021;28;19917;-44
2023/11/02 09:43:42;;;;;;;;;;;;;;;;;;5012830;28;19917;-46
2023/11/02 09:46:08;;;;;;;;;;;;;;;;;;5013228;28;19910;-45
2023/11/02 09:48:34;;;;;;;;;;;;;;;;;;5013123;28;19910;-47
2023/11/02 09:51:00;;;;;;;;;;;;;;;;;;5012618;28;20285;-44
2023/11/02 09:53:26;;;;;;;;;;;;;;;;;;5012684;28;19995;-46
2023/11/02 09:55:52;;;;;;;;;;;;;;;;;;5012826;28;19909;-46
2023/11/02 09:58:19;;;;;;;;;;;;;;;;;;5011772;28;19917;-45
2023/11/02 10:00:46;;;;;;;;;;;;;;;;;;5011611;28;20008;-45
2023/11/02 10:03:12;;;;;;;;;;;;;;;;;;5012353;28;20436;-44
2023/11/02 10:05:38;;;;;;;;;;;;;;;;;;5012764;28;19909;-48
2023/11/02 10:08:04;;;;;;;;;;;;;;;;;;5012310;28;20377;-46
2023/11/02 10:10:30;;;;;;;;;;;;;;;;;;5010514;28;20409;-46
2023/11/02 10:12:55;;;;;;;;;;;;;;;;;;5011354;28;19918;-44
2023/11/02 10:15:21;;;;;;;;;;;;;;;;;;5010448;28;19917;-45
2023/11/02 10:17:47;;;;;;;;;;;;;;;;;;5009174;28;19918;-44
2023/11/02 10:20:13;;;;;;;;;;;;;;;;;;4992581;28;19914;-47
2023/11/02 10:22:39;;;;;;;;;;;;;;;;;;5009201;28;19936;-48
2023/11/02 10:25:05;;;;;;;;;;;;;;;;;;5011296;28;19909;-48
2023/11/02 10:27:31;;;;;;;;;;;;;;;;;;5009633;28;19925;-45
2023/11/02 10:29:57;;;;;;;;;;;;;;;;;;5010122;28;20389;-44
2023/11/02 10:32:23;;;;;;;;;;;;;;;;;;5010255;28;20300;-45
2023/11/02 10:34:49;;;;;;;;;;;;;;;;;;5011894;28;19914;-45
2023/11/02 10:37:15;;;;;;;;;;;;;;;;;;5007663;28;19913;-48
2023/11/02 10:39:41;;;;;;;;;;;;;;;;;;5011873;28;19909;-45
2023/11/02 10:42:07;;;;;;;;;;;;;;;;;;5010290;28;20412;-46
2023/11/02 10:44:36;;;;;;;;;;;;;;;;;;5011584;28;19914;-44
2023/11/02 10:47:03;;;;;;;;;;;;;;;;;;5011612;28;19914;-46
2023/11/02 10:49:29;;;;;;;;;;;;;;;;;;5011553;28;19917;-44
2023/11/02 10:51:55;;;;;;;;;;;;;;;;;;5010446;28;19910;-45
2023/11/02 10:54:21;;;;;;;;;;;;;;;;;;5010042;28;19909;-46
2023/11/02 10:56:48;;;;;;;;;;;;;;;;;;5009051;28;19918;-45
2023/11/02 10:59:14;;;;;;;;;;;;;;;;;;5008601;28;19914;-48
2023/11/02 11:01:40;;;;;;;;;;;;;;;;;;5009639;28;19917;-48
2023/11/02 11:04:10;;;;;;;;;;;;;;;;;;5010913;28;19910;-45
2023/11/02 11:06:36;;;;;;;;;;;;;;;;;;5008992;28;20211;-47
2023/11/02 11:09:02;;;;;;;;;;;;;;;;;;5010459;28;19956;-46
2023/11/02 11:11:28;;;;;;;;;;;;;;;;;;5007761;28;19963;-44
2023/11/02 11:13:53;;;;;;;;;;;;;;;;;;5002867;28;19917;-46
2023/11/02 11:16:19;;;;;;;;;;;;;;;;;;5007282;28;20489;-46
2023/11/02 11:18:46;;;;;;;;;;;;;;;;;;5006813;28;19972;-45
2023/11/02 11:21:12;;;;;;;;;;;;;;;;;;4994213;28;19934;-44
2023/11/02 11:23:44;;;;;;;;;;;;;;;;;;5007953;28;19913;-44
2023/11/02 11:26:11;;;;;;;;;;;;;;;;;;5007528;28;20008;-45
2023/11/02 11:28:38;;;;;;;;;;;;;;;;;;5007272;28;19921;-48
2023/11/02 11:31:05;;;;;;;;;;;;;;;;;;5008488;28;19921;-46
2023/11/02 11:33:31;;;;;;;;;;;;;;;;;;5008066;28;19920;-46
2023/11/02 11:35:57;;;;;;;;;;;;;;;;;;5002595;28;20001;-48
2023/11/02 11:38:22;;;;;;;;;;;;;;;;;;4989019;28;20362;-45
2023/11/02 11:40:48;;;;;;;;;;;;;;;;;;4993996;28;19948;-45
2023/11/02 11:43:19;;;;;;;;;;;;;;;;;;4997356;28;19918;-48
2023/11/02 11:46:01;;;;;;;;;;;;;;;;;;4999822;28;20329;-47
2023/11/02 11:48:27;;;;;;;;;;;;;;;;;;5005172;28;20270;-45
2023/11/02 11:50:54;;;;;;;;;;;;;;;;;;4998986;28;19969;-45
2023/11/02 11:53:20;;;;;;;;;;;;;;;;;;5001788;28;19913;-47
2023/11/02 11:55:46;;;;;;;;;;;;;;;;;;5007621;28;20008;-44
2023/11/02 11:58:12;;;;;;;;;;;;;;;;;;5005295;28;20298;-44
2023/11/02 12:00:38;;;;;;;;;;;;;;;;;;5006561;28;20310;-47
2023/11/02 12:03:04;;;;;;;;;;;;;;;;;;5006635;28;19914;-46
2023/11/02 12:05:30;;;;;;;;;;;;;;;;;;5007925;28;20003;-45
2023/11/02 12:07:56;;;;;;;;;;;;;;;;;;5007870;28;19957;-45
2023/11/02 12:10:22;;;;;;;;;;;;;;;;;;5006977;28;19937;-45
2023/11/02 12:12:49;;;;;;;;;;;;;;;;;;5004516;28;19925;-47
2023/11/02 12:15:15;;;;;;;;;;;;;;;;;;5005317;28;19937;-46
2023/11/02 12:17:40;;;;;;;;;;;;;;;;;;5005449;28;19914;-43
2023/11/02 12:20:06;;;;;;;;;;;;;;;;;;5009305;28;19928;-44
2023/11/02 12:22:32;;;;;;;;;;;;;;;;;;5007949;28;19917;-45
2023/11/02 12:24:58;;;;;;;;;;;;;;;;;;5004590;28;20004;-44
2023/11/02 12:27:24;;;;;;;;;;;;;;;;;;5007707;28;19913;-46
2023/11/02 12:29:50;;;;;;;;;;;;;;;;;;5009460;28;20012;-47
2023/11/02 12:32:16;;;;;;;;;;;;;;;;;;5008637;28;20603;-44
2023/11/02 12:34:42;;;;;;;;;;;;;;;;;;5009430;28;19909;-45
2023/11/02 12:37:08;;;;;;;;;;;;;;;;;;5009491;28;19943;-44
2023/11/02 12:39:34;;;;;;;;;;;;;;;;;;5010863;28;19913;-46
2023/11/02 12:42:00;;;;;;;;;;;;;;;;;;5013091;28;19913;-44
2023/11/02 12:44:26;;;;;;;;;;;;;;;;;;5013168;28;19932;-47
2023/11/02 12:46:53;;;;;;;;;;;;;;;;;;5013106;28;19919;-43
2023/11/02 12:49:19;;;;;;;;;;;;;;;;;;5012828;28;19910;-44
2023/11/02 12:51:45;;;;;;;;;;;;;;;;;;5012910;28;20271;-43
2023/11/02 12:54:10;;;;;;;;;;;;;;;;;;5010477;28;19944;-44
2023/11/02 12:56:36;;;;;;;;;;;;;;;;;;4999336;28;20302;-44
2023/11/02 12:59:05;;;;;;;;;;;;;;;;;;5010614;28;19956;-47
2023/11/02 13:01:30;;;;;;;;;;;;;;;;;;5011199;28;19917;-47
2023/11/02 13:03:56;;;;;;;;;;;;;;;;;;5010781;28;19925;-44
2023/11/02 13:06:22;;;;;;;;;;;;;;;;;;5012742;28;20366;-46
2023/11/02 13:08:48;;;;;;;;;;;;;;;;;;5011493;28;19935;-47
2023/11/02 13:11:14;;;;;;;;;;;;;;;;;;5010416;28;19914;-47
2023/11/02 13:13:40;;;;;;;;;;;;;;;;;;5012326;28;19914;-45
2023/11/02 13:16:07;;;;;;;;;;;;;;;;;;5006998;28;19913;-44
2023/11/02 13:18:32;;;;;;;;;;;;;;;;;;5011366;28;19909;-47
2023/11/02 13:20:59;;;;;;;;;;;;;;;;;;5010584;28;20004;-45
2023/11/02 13:23:25;;;;;;;;;;;;;;;;;;5011706;28;20001;-45
2023/11/02 13:25:52;;;;;;;;;;;;;;;;;;5009243;28;20417;-44
2023/11/02 13:28:18;;;;;;;;;;;;;;;;;;5009536;28;19970;-45
2023/11/02 13:30:43;;;;;;;;;;;;;;;;;;5007830;28;19922;-48
2023/11/02 13:33:10;;;;;;;;;;;;;;;;;;5010055;28;19918;-45
2023/11/02 13:35:36;;;;;;;;;;;;;;;;;;5010534;28;20358;-45
2023/11/02 13:38:03;;;;;;;;;;;;;;;;;;5011115;28;20000;-50
2023/11/02 13:40:31;;;;;;;;;;;;;;;;;;5009437;28;19957;-44
2023/11/02 13:42:57;;;;;;;;;;;;;;;;;;5011218;28;20028;-46
2023/11/02 13:45:24;;;;;;;;;;;;;;;;;;5008513;28;20273;-44
2023/11/02 13:47:49;;;;;;;;;;;;;;;;;;5009489;28;20004;-43
2023/11/02 13:50:15;;;;;;;;;;;;;;;;;;5010564;28;19924;-44
2023/11/02 13:52:43;;;;;;;;;;;;;;;;;;5009159;28;19918;-44
2023/11/02 13:55:09;;;;;;;;;;;;;;;;;;5009636;28;19967;-43
2023/11/02 13:57:35;;;;;;;;;;;;;;;;;;5015909;28;20386;-44
2023/11/02 14:00:01;;;;;;;;;;;;;;;;;;5011509;28;19917;-44
2023/11/02 14:02:27;;;;;;;;;;;;;;;;;;5011722;28;19924;-44
2023/11/02 14:04:53;;;;;;;;;;;;;;;;;;5012049;28;19910;-44
2023/11/02 14:07:24;;;;;;;;;;;;;;;;;;5011403;28;19971;-44
2023/11/02 14:09:50;;;;;;;;;;;;;;;;;;5014184;28;19913;-44
2023/11/02 14:12:23;;;;;;;;;;;;;;;;;;5011615;28;20044;-43
2023/11/02 14:14:49;;;;;;;;;;;;;;;;;;5011318;28;19963;-44
2023/11/02 14:17:15;;;;;;;;;;;;;;;;;;5004645;28;19925;-44
2023/11/02 14:19:41;;;;;;;;;;;;;;;;;;5003720;28;19924;-44
2023/11/02 14:22:07;;;;;;;;;;;;;;;;;;5010465;28;20388;-43
2023/11/02 14:24:33;;;;;;;;;;;;;;;;;;5010870;28;20267;-43
2023/11/02 14:27:00;;;;;;;;;;;;;;;;;;5008601;28;19936;-43
2023/11/02 14:29:25;;;;;;;;;;;;;;;;;;5009901;28;20366;-43
2023/11/02 14:31:51;;;;;;;;;;;;;;;;;;5009119;28;19913;-45
2023/11/02 14:34:17;;;;;;;;;;;;;;;;;;5006618;28;19959;-48
2023/11/02 14:36:43;;;;;;;;;;;;;;;;;;5011324;28;19917;-45
2023/11/02 14:39:09;;;;;;;;;;;;;;;;;;5010730;28;19913;-43
2023/11/02 14:41:36;;;;;;;;;;;;;;;;;;5010216;28;20012;-43
2023/11/02 14:44:03;;;;;;;;;;;;;;;;;;5008512;28;19910;-43
2023/11/02 14:46:29;;;;;;;;;;;;;;;;;;5008923;28;20386;-44
2023/11/02 14:48:55;;;;;;;;;;;;;;;;;;5007954;28;19924;-43
2023/11/02 14:51:21;;;;;;;;;;;;;;;;;;5010620;28;19909;-44
2023/11/02 14:53:47;;;;;;;;;;;;;;;;;;5009924;28;19921;-44
2023/11/02 14:56:13;;;;;;;;;;;;;;;;;;5010272;28;20301;-43
2023/11/02 14:58:40;;;;;;;;;;;;;;;;;;5006984;28;19913;-43
2023/11/02 15:01:06;;;;;;;;;;;;;;;;;;5008786;28;19960;-43
2023/11/02 15:03:32;;;;;;;;;;;;;;;;;;5009645;28;19909;-44
2023/11/02 15:05:58;;;;;;;;;;;;;;;;;;5010264;28;19913;-44
2023/11/02 15:08:23;;;;;;;;;;;;;;;;;;5010742;28;20333;-45
2023/11/02 15:10:49;;;;;;;;;;;;;;;;;;5010418;28;20294;-47
2023/11/02 15:13:15;;;;;;;;;;;;;;;;;;5026044;28;19956;-43
2023/11/02 15:15:41;;;;;;;;;;;;;;;;;;5030187;28;20352;-44
2023/11/02 15:18:08;;;;;;;;;;;;;;;;;;5001627;28;19910;-44
2023/11/02 15:20:38;;;;;;;;;;;;;;;;;;5007826;28;19925;-45
2023/11/02 15:23:04;;;;;;;;;;;;;;;;;;5011111;28;19988;-43
2023/11/02 15:25:30;;;;;;;;;;;;;;;;;;5010013;28;19941;-44
2023/11/02 15:27:56;;;;;;;;;;;;;;;;;;5007440;28;20023;-43
2023/11/02 15:30:22;;;;;;;;;;;;;;;;;;5010297;28;19956;-43
2023/11/02 15:32:48;;;;;;;;;;;;;;;;;;5009649;28;20297;-42
2023/11/02 15:35:14;;;;;;;;;;;;;;;;;;5012517;28;20282;-43
2023/11/02 15:37:40;;;;;;;;;;;;;;;;;;5008626;28;20437;-43
2023/11/02 15:40:07;;;;;;;;;;;;;;;;;;5010362;28;19932;-44
2023/11/02 15:42:33;;;;;;;;;;;;;;;;;;5009635;28;19910;-43
2023/11/02 15:44:59;;;;;;;;;;;;;;;;;;5009810;28;19914;-43
2023/11/02 15:47:25;;;;;;;;;;;;;;;;;;5010105;28;20548;-43
2023/11/02 15:49:53;;;;;;;;;;;;;;;;;;5008331;28;19918;-43
2023/11/02 15:52:20;;;;;;;;;;;;;;;;;;5009861;28;19909;-43
2023/11/02 15:54:46;;;;;;;;;;;;;;;;;;5009888;28;19909;-43
2023/11/02 15:57:14;;;;;;;;;;;;;;;;;;5009577;28;19910;-43
2023/11/02 15:59:40;;;;;;;;;;;;;;;;;;5006070;28;19909;-42
2023/11/02 16:02:07;;;;;;;;;;;;;;;;;;5008900;28;19921;-43
2023/11/02 16:04:34;;;;;;;;;;;;;;;;;;5008307;28;19909;-44
2023/11/02 16:06:59;;;;;;;;;;;;;;;;;;5009788;28;19909;-45
2023/11/02 16:09:25;;;;;;;;;;;;;;;;;;5009957;28;19917;-42
2023/11/02 16:11:52;;;;;;;;;;;;;;;;;;5013402;28;20001;-43
2023/11/02 16:14:18;;;;;;;;;;;;;;;;;;5012722;28;19916;-43
2023/11/02 16:16:44;;;;;;;;;;;;;;;;;;5013416;28;19909;-43
2023/11/02 16:19:10;;;;;;;;;;;;;;;;;;5009520;28;19913;-43
2023/11/02 16:21:36;;;;;;;;;;;;;;;;;;5014200;28;19971;-42
2023/11/02 16:24:02;;;;;;;;;;;;;;;;;;5013448;28;19968;-43
2023/11/02 16:26:28;;;;;;;;;;;;;;;;;;5012725;28;20657;-43
2023/11/02 16:28:54;;;;;;;;;;;;;;;;;;5011669;28;19913;-43
2023/11/02 16:31:21;;;;;;;;;;;;;;;;;;5012278;28;20059;-43
2023/11/02 16:33:47;;;;;;;;;;;;;;;;;;5012100;28;19913;-43
2023/11/02 16:36:13;;;;;;;;;;;;;;;;;;5011378;28;19936;-43
2023/11/02 16:38:39;;;;;;;;;;;;;;;;;;5013450;28;20008;-43
2023/11/02 16:41:06;;;;;;;;;;;;;;;;;;5013968;28;19917;-43
2023/11/02 16:43:32;;;;;;;;;;;;;;;;;;5009894;28;19949;-43
2023/11/02 16:45:58;;;;;;;;;;;;;;;;;;5009923;28;19949;-42
2023/11/02 16:48:24;;;;;;;;;;;;;;;;;;5012776;28;19909;-43
2023/11/02 16:50:50;;;;;;;;;;;;;;;;;;5012853;28;19910;-43
2023/11/02 16:53:15;;;;;;;;;;;;;;;;;;5011855;28;20370;-43
2023/11/02 16:55:41;;;;;;;;;;;;;;;;;;5012950;28;19910;-43
2023/11/02 16:58:08;;;;;;;;;;;;;;;;;;5012119;28;19971;-43
2023/11/02 17:00:36;;;;;;;;;;;;;;;;;;5011048;28;19917;-43
2023/11/02 17:03:01;;;;;;;;;;;;;;;;;;5012770;28;19918;-45
2023/11/02 17:05:27;;;;;;;;;;;;;;;;;;5012658;28;20279;-43
2023/11/02 17:07:55;;;;;;;;;;;;;;;;;;5011521;28;19963;-44
2023/11/02 17:10:21;;;;;;;;;;;;;;;;;;5012699;28;19909;-43
2023/11/02 17:12:52;;;;;;;;;;;;;;;;;;5012730;28;19956;-44
2023/11/02 17:15:18;;;;;;;;;;;;;;;;;;5012530;28;20400;-43
2023/11/02 17:17:44;;;;;;;;;;;;;;;;;;5012120;28;19909;-43
2023/11/02 17:20:10;;;;;;;;;;;;;;;;;;5012713;28;19921;-42
2023/11/02 17:22:36;;;;;;;;;;;;;;;;;;5005768;28;20366;-43
2023/11/02 17:25:03;;;;;;;;;;;;;;;;;;5010940;28;20016;-43
2023/11/02 17:27:29;;;;;;;;;;;;;;;;;;5012185;28;19955;-43
2023/11/02 17:29:56;;;;;;;;;;;;;;;;;;5009515;28;19917;-43
2023/11/02 17:32:22;;;;;;;;;;;;;;;;;;5011170;28;19909;-42
2023/11/02 17:34:48;;;;;;;;;;;;;;;;;;5012230;28;19917;-42
2023/11/02 17:37:13;;;;;;;;;;;;;;;;;;5011867;28;19910;-42
2023/11/02 17:39:39;;;;;;;;;;;;;;;;;;5012802;28;19949;-43
2023/11/02 17:42:05;;;;;;;;;;;;;;;;;;5012030;28;19914;-42
2023/11/02 17:44:31;;;;;;;;;;;;;;;;;;5011811;28;19941;-43
2023/11/02 17:46:57;;;;;;;;;;;;;;;;;;5011303;28;19972;-43
2023/11/02 17:49:23;;;;;;;;;;;;;;;;;;5011615;28;19960;-43
2023/11/02 17:51:49;;;;;;;;;;;;;;;;;;5009231;28;20405;-42
2023/11/02 17:54:15;;;;;;;;;;;;;;;;;;5011972;28;19917;-42
2023/11/02 17:56:41;;;;;;;;;;;;;;;;;;5012287;28;20365;-42
2023/11/02 17:59:06;;;;;;;;;;;;;;;;;;5011775;28;19936;-42
2023/11/02 18:01:32;;;;;;;;;;;;;;;;;;5011445;28;20441;-42
2023/11/02 18:03:58;;;;;;;;;;;;;;;;;;5011518;28;19996;-42
2023/11/02 18:06:25;;;;;;;;;;;;;;;;;;5011265;28;19913;-42
2023/11/02 18:08:51;;;;;;;;;;;;;;;;;;5010132;28;19910;-41
2023/11/02 18:11:18;;;;;;;;;;;;;;;;;;5007246;28;20020;-42
2023/11/02 18:13:44;;;;;;;;;;;;;;;;;;4992892;28;20318;-42
2023/11/02 18:16:12;;;;;;;;;;;;;;;;;;5009437;28;20402;-41
2023/11/02 18:18:38;;;;;;;;;;;;;;;;;;4992909;28;20373;-42
2023/11/02 18:21:04;;;;;;;;;;;;;;;;;;5008094;28;19921;-42
2023/11/02 18:23:30;;;;;;;;;;;;;;;;;;5010524;28;19953;-42
2023/11/02 18:25:56;;;;;;;;;;;;;;;;;;5012262;28;19996;-42
2023/11/02 18:28:22;;;;;;;;;;;;;;;;;;5010302;28;19957;-42
2023/11/02 18:30:48;;;;;;;;;;;;;;;;;;5010261;28;19910;-42
2023/11/02 18:33:14;;;;;;;;;;;;;;;;;;5011519;28;19910;-41
2023/11/02 18:35:39;;;;;;;;;;;;;;;;;;5024909;28;20302;-42
2023/11/02 18:38:11;;;;;;;;;;;;;;;;;;5017400;28;19913;-42
2023/11/02 18:40:37;;;;;;;;;;;;;;;;;;5010747;28;19918;-42
2023/11/02 18:43:03;;;;;;;;;;;;;;;;;;5010083;28;20488;-42
2023/11/02 18:45:29;;;;;;;;;;;;;;;;;;5009030;28;19978;-42
2023/11/02 18:47:56;;;;;;;;;;;;;;;;;;5009838;28;19918;-42
2023/11/02 18:50:23;;;;;;;;;;;;;;;;;;5010488;28;19963;-42
2023/11/02 18:52:49;;;;;;;;;;;;;;;;;;5009176;28;20453;-42
2023/11/02 18:55:17;;;;;;;;;;;;;;;;;;5010663;28;19909;-42
2023/11/02 18:57:43;;;;;;;;;;;;;;;;;;5010531;28;19916;-45
2023/11/02 19:00:09;;;;;;;;;;;;;;;;;;5005632;28;19917;-44
2023/11/02 19:02:38;;;;;;;;;;;;;;;;;;5004709;28;20000;-42
2023/11/02 19:05:05;;;;;;;;;;;;;;;;;;5006571;28;20410;-43
2023/11/02 19:07:31;;;;;;;;;;;;;;;;;;5003510;28;19944;-42
2023/11/02 19:09:57;;;;;;;;;;;;;;;;;;5005015;28;20019;-42
2023/11/02 19:12:24;;;;;;;;;;;;;;;;;;4986920;28;19914;-43
2023/11/02 19:14:50;;;;;;;;;;;;;;;;;;5002913;28;19918;-43
2023/11/02 19:17:16;;;;;;;;;;;;;;;;;;4987974;28;20975;-43
2023/11/02 19:19:42;;;;;;;;;;;;;;;;;;5005536;28;19918;-42
2023/11/02 19:22:08;;;;;;;;;;;;;;;;;;5005552;28;19924;-43
2023/11/02 19:24:34;;;;;;;;;;;;;;;;;;5004836;28;20002;-43
2023/11/02 19:27:00;;;;;;;;;;;;;;;;;;5007519;28;19914;-43
2023/11/02 19:29:26;;;;;;;;;;;;;;;;;;5005890;28;19913;-43
2023/11/02 19:31:53;;;;;;;;;;;;;;;;;;5006173;28;19913;-42
2023/11/02 19:34:18;;;;;;;;;;;;;;;;;;4990580;28;20300;-42
2023/11/02 19:36:46;;;;;;;;;;;;;;;;;;4989619;28;19916;-43
2023/11/02 19:39:12;;;;;;;;;;;;;;;;;;5007074;28;19917;-43
2023/11/02 19:41:39;;;;;;;;;;;;;;;;;;5006450;28;19918;-42
2023/11/02 19:44:05;;;;;;;;;;;;;;;;;;5006479;28;20385;-43
2023/11/02 19:46:31;;;;;;;;;;;;;;;;;;5007207;28;19921;-44
2023/11/02 19:48:57;;;;;;;;;;;;;;;;;;4988536;28;19913;-43
2023/11/02 19:51:23;;;;;;;;;;;;;;;;;;5006875;28;19936;-42
2023/11/02 19:53:49;;;;;;;;;;;;;;;;;;5006047;28;19909;-42
2023/11/02 19:56:15;;;;;;;;;;;;;;;;;;5003899;28;19909;-43
2023/11/02 19:58:41;;;;;;;;;;;;;;;;;;5006159;28;19913;-43
2023/11/02 20:01:07;;;;;;;;;;;;;;;;;;5006212;28;20020;-43
2023/11/02 20:03:34;;;;;;;;;;;;;;;;;;5004651;28;19914;-43
2023/11/02 20:06:02;;;;;;;;;;;;;;;;;;5006518;28;20381;-43
2023/11/02 20:08:28;;;;;;;;;;;;;;;;;;5004389;28;19971;-42
2023/11/02 20:10:54;;;;;;;;;;;;;;;;;;5006149;28;19973;-42
2023/11/02 20:13:22;;;;;;;;;;;;;;;;;;5004639;28;20286;-43
2023/11/02 20:15:48;;;;;;;;;;;;;;;;;;5006638;28;20011;-43
2023/11/02 20:18:13;;;;;;;;;;;;;;;;;;5006481;28;20004;-43
2023/11/02 20:20:39;;;;;;;;;;;;;;;;;;5005147;28;19922;-43
2023/11/02 20:23:05;;;;;;;;;;;;;;;;;;5003357;28;19914;-44
2023/11/02 20:25:32;;;;;;;;;;;;;;;;;;5006762;28;19941;-42
2023/11/02 20:28:00;;;;;;;;;;;;;;;;;;5007705;28;19913;-43
2023/11/02 20:30:27;;;;;;;;;;;;;;;;;;5004447;28;20309;-43
2023/11/02 20:32:54;;;;;;;;;;;;;;;;;;5005489;28;19913;-43
2023/11/02 20:35:20;;;;;;;;;;;;;;;;;;4985275;28;19964;-43
2023/11/02 20:37:46;;;;;;;;;;;;;;;;;;4987410;28;19914;-42
2023/11/02 20:40:12;;;;;;;;;;;;;;;;;;5016025;28;19916;-42
2023/11/02 20:42:37;;;;;;;;;;;;;;;;;;4987875;28;20390;-42
2023/11/02 20:45:04;;;;;;;;;;;;;;;;;;5004074;28;19917;-43
2023/11/02 20:47:31;;;;;;;;;;;;;;;;;;5004536;28;19988;-43
2023/11/02 20:49:57;;;;;;;;;;;;;;;;;;5012255;28;20641;-43
2023/11/02 20:52:25;;;;;;;;;;;;;;;;;;5014042;28;19913;-43
2023/11/02 20:54:50;;;;;;;;;;;;;;;;;;5004933;28;19917;-42
2023/11/02 20:57:16;;;;;;;;;;;;;;;;;;5009355;28;19921;-44
2023/11/02 20:59:42;;;;;;;;;;;;;;;;;;5005500;28;19963;-44
2023/11/02 21:02:08;;;;;;;;;;;;;;;;;;5008823;28;19952;-43
2023/11/02 21:04:34;;;;;;;;;;;;;;;;;;5006532;28;19917;-44
2023/11/02 21:07:00;;;;;;;;;;;;;;;;;;4991945;28;20378;-43
2023/11/02 21:09:26;;;;;;;;;;;;;;;;;;5008361;28;19917;-43
2023/11/02 21:11:52;;;;;;;;;;;;;;;;;;5012118;28;19914;-43
2023/11/02 21:14:18;;;;;;;;;;;;;;;;;;5008166;28;19913;-43
2023/11/02 21:16:44;;;;;;;;;;;;;;;;;;5007172;28;19918;-43
2023/11/02 21:19:11;;;;;;;;;;;;;;;;;;5009292;28;19948;-44
2023/11/02 21:21:37;;;;;;;;;;;;;;;;;;5007092;28;19921;-42
2023/11/02 21:24:03;;;;;;;;;;;;;;;;;;5009097;28;20571;-43
2023/11/02 21:26:29;;;;;;;;;;;;;;;;;;4991264;28;19967;-42
2023/11/02 21:28:55;;;;;;;;;;;;;;;;;;5007208;28;20022;-42
2023/11/02 21:31:21;;;;;;;;;;;;;;;;;;5009019;28;19956;-43
2023/11/02 21:33:46;;;;;;;;;;;;;;;;;;5008692;28;20321;-42
2023/11/02 21:36:12;;;;;;;;;;;;;;;;;;4991536;28;20410;-42
2023/11/02 21:38:40;;;;;;;;;;;;;;;;;;5007739;28;19921;-42
2023/11/02 21:41:06;;;;;;;;;;;;;;;;;;5008144;28;20000;-44
2023/11/02 21:43:32;;;;;;;;;;;;;;;;;;5008331;28;20330;-44
2023/11/02 21:45:58;;;;;;;;;;;;;;;;;;5002620;28;20000;-44
2023/11/02 21:48:23;;;;;;;;;;;;;;;;;;5007968;28;20011;-42
2023/11/02 21:50:50;;;;;;;;;;;;;;;;;;5007831;28;19967;-42
2023/11/02 21:53:16;;;;;;;;;;;;;;;;;;5006629;28;19921;-43
2023/11/02 21:55:42;;;;;;;;;;;;;;;;;;5008718;28;20896;-41
2023/11/02 21:58:08;;;;;;;;;;;;;;;;;;5017025;28;20293;-42
2023/11/02 22:00:34;;;;;;;;;;;;;;;;;;5027601;28;19913;-41
2023/11/02 22:03:00;;;;;;;;;;;;;;;;;;5028664;28;19913;-43
2023/11/02 22:05:26;;;;;;;;;;;;;;;;;;5028169;28;20154;-42
2023/11/02 22:07:52;;;;;;;;;;;;;;;;;;5028395;28;19909;-43
2023/11/02 22:10:18;;;;;;;;;;;;;;;;;;5008881;28;19957;-43
2023/11/02 22:12:45;;;;;;;;;;;;;;;;;;5006456;28;19923;-42
2023/11/02 22:15:11;;;;;;;;;;;;;;;;;;5008056;28;20468;-42
2023/11/02 22:17:37;;;;;;;;;;;;;;;;;;5008068;28;19913;-44
2023/11/02 22:20:04;;;;;;;;;;;;;;;;;;5008029;28;20001;-43
2023/11/02 22:22:30;;;;;;;;;;;;;;;;;;5008278;28;19909;-43
2023/11/02 22:24:56;;;;;;;;;;;;;;;;;;5007769;28;20317;-43
2023/11/02 22:27:22;;;;;;;;;;;;;;;;;;5008801;28;20339;-44
2023/11/02 22:29:48;;;;;;;;;;;;;;;;;;5007445;28;19999;-43
2023/11/02 22:32:14;;;;;;;;;;;;;;;;;;5008001;28;19983;-42
2023/11/02 22:34:40;;;;;;;;;;;;;;;;;;5007647;28;19909;-43
2023/11/02 22:37:06;;;;;;;;;;;;;;;;;;5007624;28;19929;-43
2023/11/02 22:39:32;;;;;;;;;;;;;;;;;;5006941;28;19918;-45